Station Historical Data
Daily Summary for February 15, 2017 Units:  Metric    English   Both
« Previous Day
Next Day »
Daily Weekly Monthly Yearly Custom
  High: Low: Average:
Temperature: 14.3 °C 7.5 °C 11.1 °C
Dew Point: 7 °C 1.8 °C 4 °C
Humidity: 77 % 47 % 62 %
Wind Speed: 22.5 km/h 0 km/h 5.5 km/h
Wind Gust: 33.8 km/h - -
Wind:- - SE
Pressure: 1022.6 hPa 1015.8 hPa -
Precipitation: 0 mm    
Historical Graphs
 
 
Tabular Data for February 15, 2017
Time Temperature Dew Point Pressure Wind Wind Speed Wind Gust Humidity Rainfall Rate (Hourly) solar
00:04 9.2 °C 4.1 °C 1022.6 hPa ESE 1.6 km/h 20.9 km/h 70 % 0 mm 0.00 W/m2
00:09 9.3 °C 3.7 °C 1022.6 hPa Calm   14.5 km/h 68 % 0 mm 0.00 W/m2
00:14 9.3 °C 3.7 °C 1022.6 hPa Calm   20.9 km/h 68 % 0 mm 0.00 W/m2
00:19 9.3 °C 4.2 °C 1022.6 hPa Calm   17.7 km/h 70 % 0 mm 0.00 W/m2
00:24 9.4 °C 4.4 °C 1022.6 hPa Calm   14.5 km/h 71 % 0 mm 0.00 W/m2
00:29 9.3 °C 4.3 °C 1022.2 hPa ESE 1.6 km/h 3.2 km/h 71 % 0 mm 0.00 W/m2
00:34 9.3 °C 4.2 °C 1022.2 hPa ESE 12.9 km/h 19.3 km/h 70 % 0 mm 0.00 W/m2
00:39 9.3 °C 4.3 °C 1022.2 hPa Calm   12.9 km/h 71 % 0 mm 0.00 W/m2
00:44 9.2 °C 4.2 °C 1022.2 hPa Calm   22.5 km/h 71 % 0 mm 0.00 W/m2
00:49 9.1 °C 4.3 °C 1022.2 hPa Calm   22.5 km/h 72 % 0 mm 0.00 W/m2
00:54 9.1 °C 4.3 °C 1022.2 hPa ESE 12.9 km/h 24.1 km/h 72 % 0 mm 0.00 W/m2
00:59 9 °C 4 °C 1022.2 hPa East 11.3 km/h 24.1 km/h 71 % 0 mm 0.00 W/m2
01:04 8.9 °C 4 °C 1021.9 hPa ESE 9.7 km/h 20.9 km/h 71 % 0 mm 0.00 W/m2
01:09 8.9 °C 4 °C 1021.9 hPa East 14.5 km/h 24.1 km/h 71 % 0 mm 0.00 W/m2
01:14 8.9 °C 3.8 °C 1021.9 hPa SE 12.9 km/h 24.1 km/h 70 % 0 mm 0.00 W/m2
01:19 9 °C 3.8 °C 1021.9 hPa ESE 9.7 km/h 29 km/h 70 % 0 mm 0.00 W/m2
01:24 9 °C 4 °C 1021.9 hPa East 6.4 km/h 22.5 km/h 71 % 0 mm 0.00 W/m2
01:29 9 °C 4 °C 1021.9 hPa Calm   22.5 km/h 71 % 0 mm 0.00 W/m2
01:34 9 °C 4 °C 1021.9 hPa Calm   25.7 km/h 71 % 0 mm 0.00 W/m2
01:39 8.9 °C 3.6 °C 1022.2 hPa ESE 12.9 km/h 20.9 km/h 69 % 0 mm 0.00 W/m2
01:44 8.9 °C 3.6 °C 1022.2 hPa ESE 14.5 km/h 20.9 km/h 69 % 0 mm 0.00 W/m2
01:49 8.9 °C 4 °C 1022.2 hPa Calm   19.3 km/h 71 % 0 mm 0.00 W/m2
01:54 8.9 °C 3.7 °C 1022.2 hPa Calm   14.5 km/h 70 % 0 mm 0.00 W/m2
01:59 8.8 °C 3.9 °C 1022.2 hPa Calm     71 % 0 mm 0.00 W/m2
02:04 8.8 °C 3.6 °C 1022.2 hPa Calm     70 % 0 mm 0.00 W/m2
02:09 8.7 °C 3.6 °C 1022.2 hPa Calm     70 % 0 mm 0.00 W/m2
02:14 8.7 °C 3.3 °C 1022.2 hPa Calm     69 % 0 mm 0.00 W/m2
02:19 8.7 °C 3.7 °C 1022.2 hPa Calm     71 % 0 mm 0.00 W/m2
02:24 8.6 °C 3.7 °C 1022.2 hPa Calm     71 % 0 mm 0.00 W/m2
02:29 8.5 °C 3.6 °C 1022.2 hPa Calm     71 % 0 mm 0.00 W/m2
02:34 8.3 °C 3.1 °C 1022.2 hPa Calm     70 % 0 mm 0.00 W/m2
02:40 8.2 °C 3.1 °C 1021.9 hPa Calm     70 % 0 mm 0.00 W/m2
02:45 8.1 °C 3.4 °C 1021.6 hPa Calm     72 % 0 mm 0.00 W/m2
02:50 8.1 °C 3.3 °C 1021.6 hPa ESE 1.6 km/h 3.2 km/h 72 % 0 mm 0.00 W/m2
02:55 8.1 °C 3.5 °C 1021.6 hPa Calm   6.4 km/h 73 % 0 mm 0.00 W/m2
03:00 8 °C 3.4 °C 1021.6 hPa Calm   17.7 km/h 73 % 0 mm 0.00 W/m2
03:05 8 °C 3.4 °C 1021.6 hPa Calm   6.4 km/h 73 % 0 mm 0.00 W/m2
03:10 8 °C 4.2 °C 1021.2 hPa East 14.5 km/h 20.9 km/h 77 % 0 mm 0.00 W/m2
03:15 7.9 °C 3.4 °C 1021.2 hPa East 14.5 km/h 22.5 km/h 73 % 0 mm 0.00 W/m2
03:20 7.9 °C 3.4 °C 1021.2 hPa East 11.3 km/h 22.5 km/h 73 % 0 mm 0.00 W/m2
03:25 7.9 °C 3.2 °C 1021.2 hPa Calm   24.1 km/h 72 % 0 mm 0.00 W/m2
03:30 7.9 °C 3.2 °C 1021.2 hPa East 19.3 km/h 22.5 km/h 72 % 0 mm 0.00 W/m2
03:35 7.9 °C 3.2 °C 1020.9 hPa ESE 17.7 km/h 24.1 km/h 72 % 0 mm 0.00 W/m2
03:40 8 °C 3.3 °C 1020.5 hPa SE 8 km/h 25.7 km/h 72 % 0 mm 0.00 W/m2
03:45 8 °C 3.3 °C 1020.5 hPa East 17.7 km/h 24.1 km/h 72 % 0 mm 0.00 W/m2
03:50 8.1 °C 3.1 °C 1020.2 hPa East 17.7 km/h 24.1 km/h 71 % 0 mm 0.00 W/m2
03:55 8.1 °C 2.9 °C 1020.5 hPa ESE 12.9 km/h 24.1 km/h 70 % 0 mm 0.00 W/m2
04:00 8.2 °C 3.1 °C 1020.2 hPa East 8 km/h 20.9 km/h 70 % 0 mm 0.00 W/m2
04:05 8.3 °C 3.1 °C 1019.9 hPa ESE 14.5 km/h 32.2 km/h 70 % 0 mm 0.00 W/m2
04:10 8.3 °C 3.2 °C 1019.9 hPa ESE 14.5 km/h 30.6 km/h 70 % 0 mm 0.00 W/m2
04:15 8.3 °C 3 °C 1020.2 hPa Calm   22.5 km/h 69 % 0 mm 0.00 W/m2
04:20 8.4 °C 2.9 °C 1020.2 hPa ESE 8 km/h 29 km/h 68 % 0 mm 0.00 W/m2
04:25 8.4 °C 2.7 °C 1020.5 hPa East 11.3 km/h 19.3 km/h 67 % 0 mm 0.00 W/m2
04:30 8.5 °C 2.7 °C 1020.5 hPa East 8 km/h 14.5 km/h 67 % 0 mm 0.00 W/m2
04:35 8.6 °C 2.8 °C 1020.5 hPa Calm   3.2 km/h 67 % 0 mm 0.00 W/m2
04:40 8.6 °C 3 °C 1020.2 hPa East 9.7 km/h 20.9 km/h 68 % 0 mm 0.00 W/m2
04:45 8.6 °C 3.2 °C 1020.2 hPa Calm   19.3 km/h 69 % 0 mm 0.00 W/m2
04:50 8.5 °C 2.9 °C 1020.2 hPa Calm   20.9 km/h 68 % 0 mm 0.00 W/m2
04:55 8.4 °C 2.9 °C 1020.2 hPa East 8 km/h 20.9 km/h 68 % 0 mm 0.00 W/m2
05:00 8.4 °C 2.8 °C 1020.2 hPa ESE 3.2 km/h 19.3 km/h 68 % 0 mm 0.00 W/m2
05:05 8.3 °C 3 °C 1020.2 hPa East 17.7 km/h 20.9 km/h 69 % 0 mm 0.00 W/m2
05:10 8.3 °C 2.9 °C 1020.2 hPa East 9.7 km/h 20.9 km/h 69 % 0 mm 0.00 W/m2
05:15 8.2 °C 2.9 °C 1020.5 hPa Calm   20.9 km/h 69 % 0 mm 0.00 W/m2
05:20 8.2 °C 2.6 °C 1020.5 hPa Calm   22.5 km/h 68 % 0 mm 0.00 W/m2
05:26 8.2 °C 2.6 °C 1020.5 hPa East 9.7 km/h 22.5 km/h 68 % 0 mm 0.00 W/m2
05:31 8.2 °C 2.8 °C 1020.5 hPa Calm   20.9 km/h 69 % 0 mm 0.00 W/m2
05:36 8.1 °C 2.9 °C 1020.5 hPa ESE 11.3 km/h 29 km/h 70 % 0 mm 0.00 W/m2
05:41 8.1 °C 2.5 °C 1020.5 hPa ESE 14.5 km/h 22.5 km/h 68 % 0 mm 0.00 W/m2
05:46 8 °C 2.7 °C 1020.9 hPa ESE 9.7 km/h 19.3 km/h 69 % 0 mm 0.00 W/m2
05:51 8 °C 2.4 °C 1020.9 hPa ESE 3.2 km/h 17.7 km/h 68 % 0 mm 0.00 W/m2
05:56 8 °C 2.4 °C 1020.9 hPa ESE 1.6 km/h 14.5 km/h 68 % 0 mm 0.00 W/m2
06:01 7.9 °C 2.4 °C 1020.9 hPa Calm   1.6 km/h 68 % 0 mm 0.00 W/m2
06:06 7.9 °C 2.4 °C 1020.9 hPa Calm   12.9 km/h 68 % 0 mm 0.00 W/m2
06:11 7.9 °C 2.6 °C 1020.9 hPa East 1.6 km/h 1.6 km/h 69 % 0 mm 0.00 W/m2
06:16 7.8 °C 2.5 °C 1021.2 hPa East 3.2 km/h 3.2 km/h 69 % 0 mm 0.00 W/m2
06:21 7.7 °C 2.4 °C 1021.2 hPa ESE 1.6 km/h 3.2 km/h 69 % 0 mm 0.00 W/m2
06:31 7.7 °C 2.1 °C 1021.2 hPa Calm     68 % 0 mm 0.00 W/m2
06:36 7.6 °C 2.3 °C 1021.2 hPa Calm     69 % 0 mm 0.00 W/m2
06:41 7.6 °C 2.2 °C 1021.2 hPa East 1.6 km/h 1.6 km/h 69 % 0 mm 0.00 W/m2
06:46 7.6 °C 2.1 °C 1021.2 hPa Calm   1.6 km/h 68 % 0 mm 5.00 W/m2
06:51 7.6 °C 2.2 °C 1021.6 hPa Calm     69 % 0 mm 5.00 W/m2
06:56 7.6 °C 2.1 °C 1021.6 hPa Calm     68 % 0 mm 5.00 W/m2
07:01 7.6 °C 2.2 °C 1021.9 hPa Calm     69 % 0 mm 11.00 W/m2
07:06 7.6 °C 2.1 °C 1021.9 hPa Calm     68 % 0 mm 16.00 W/m2
07:11 7.5 °C 2 °C 1021.9 hPa Calm     68 % 0 mm 23.00 W/m2
07:16 7.5 °C 1.8 °C 1021.9 hPa Calm     67 % 0 mm 32.00 W/m2
07:21 7.6 °C 2.1 °C 1021.9 hPa Calm     68 % 0 mm 40.00 W/m2
07:26 7.6 °C 2.2 °C 1021.9 hPa East 1.6 km/h 8 km/h 69 % 0 mm 69.00 W/m2
07:31 7.6 °C 2.4 °C 1021.9 hPa Calm   8 km/h 70 % 0 mm 77.00 W/m2
07:36 7.6 °C 2.4 °C 1021.6 hPa ESE 3.2 km/h 6.4 km/h 70 % 0 mm 69.00 W/m2
07:41 7.6 °C 2.3 °C 1021.6 hPa SE 3.2 km/h 11.3 km/h 69 % 0 mm 77.00 W/m2
07:46 7.7 °C 2.4 °C 1021.6 hPa Calm   6.4 km/h 69 % 0 mm 125.00 W/m2
07:51 7.8 °C 2.2 °C 1021.6 hPa ESE 1.6 km/h 24.1 km/h 68 % 0 mm 162.00 W/m2
07:56 7.9 °C 2.2 °C 1021.6 hPa ESE 12.9 km/h 12.9 km/h 67 % 0 mm 163.00 W/m2
08:01 8 °C 1.8 °C 1021.6 hPa Calm   33.8 km/h 65 % 0 mm 151.00 W/m2
08:06 8.2 °C 2.2 °C 1021.9 hPa Calm   24.1 km/h 66 % 0 mm 195.00 W/m2
08:11 8.3 °C 2.6 °C 1021.6 hPa East 9.7 km/h 20.9 km/h 67 % 0 mm 206.00 W/m2
08:17 8.5 °C 2.1 °C 1021.6 hPa East 3.2 km/h 9.7 km/h 64 % 0 mm 202.00 W/m2
08:22 8.7 °C 2.4 °C 1021.9 hPa East 3.2 km/h 17.7 km/h 65 % 0 mm 258.00 W/m2
08:27 8.8 °C 2.3 °C 1021.9 hPa ESE 14.5 km/h 22.5 km/h 64 % 0 mm 227.00 W/m2
08:32 8.9 °C 2.5 °C 1021.9 hPa Calm   8 km/h 64 % 0 mm 258.00 W/m2
08:37 9.1 °C 2.4 °C 1022.2 hPa Calm   20.9 km/h 63 % 0 mm 185.00 W/m2
08:42 9.3 °C 2.4 °C 1022.2 hPa ESE 1.6 km/h 3.2 km/h 62 % 0 mm 130.00 W/m2
08:47 9.4 °C 2.7 °C 1021.9 hPa Calm   12.9 km/h 63 % 0 mm 132.00 W/m2
08:52 9.6 °C 3.2 °C 1022.2 hPa Calm   3.2 km/h 64 % 0 mm 125.00 W/m2
08:57 9.8 °C 3.1 °C 1022.2 hPa Calm   1.6 km/h 63 % 0 mm 107.00 W/m2
09:02 9.9 °C 3.4 °C 1022.6 hPa Calm   1.6 km/h 64 % 0 mm 93.00 W/m2
09:07 10 °C 3.1 °C 1022.6 hPa Calm   1.6 km/h 62 % 0 mm 97.00 W/m2
09:12 10.1 °C 3.4 °C 1022.6 hPa ESE 1.6 km/h 1.6 km/h 63 % 0 mm 113.00 W/m2
09:17 10.2 °C 3.9 °C 1022.6 hPa Calm   3.2 km/h 65 % 0 mm 148.00 W/m2
09:22 10.3 °C 4 °C 1022.6 hPa Calm   1.6 km/h 65 % 0 mm 137.00 W/m2
09:27 10.4 °C 4.3 °C 1022.6 hPa Calm   1.6 km/h 66 % 0 mm 121.00 W/m2
09:32 10.4 °C 4.4 °C 1022.6 hPa SE 1.6 km/h 1.6 km/h 66 % 0 mm 102.00 W/m2
09:37 10.5 °C 4 °C 1022.6 hPa SE 1.6 km/h 3.2 km/h 64 % 0 mm 123.00 W/m2
09:42 10.6 °C 4.7 °C 1022.6 hPa Calm   1.6 km/h 67 % 0 mm 113.00 W/m2
09:47 10.7 °C 5.2 °C 1022.2 hPa Calm   3.2 km/h 69 % 0 mm 134.00 W/m2
09:52 10.8 °C 4.7 °C 1022.2 hPa Calm   3.2 km/h 66 % 0 mm 153.00 W/m2
09:57 10.8 °C 4.7 °C 1022.2 hPa SE 1.6 km/h 6.4 km/h 66 % 0 mm 139.00 W/m2
10:02 10.9 °C 4.8 °C 1022.2 hPa SE 1.6 km/h 1.6 km/h 66 % 0 mm 165.00 W/m2
10:08 11 °C 4.9 °C 1022.2 hPa Calm   6.4 km/h 66 % 0 mm 169.00 W/m2
10:13 11 °C 4.4 °C 1022.2 hPa Calm   1.6 km/h 64 % 0 mm 158.00 W/m2
10:18 11.1 °C 4.6 °C 1021.9 hPa ESE 1.6 km/h 3.2 km/h 64 % 0 mm 139.00 W/m2
10:23 11.2 °C 3.9 °C 1022.2 hPa Calm   6.4 km/h 61 % 0 mm 114.00 W/m2
10:28 11.2 °C 4.4 °C 1022.2 hPa Calm     63 % 0 mm 111.00 W/m2
10:33 11.3 °C 4.8 °C 1022.2 hPa Calm   3.2 km/h 64 % 0 mm 125.00 W/m2
10:38 11.3 °C 4.6 °C 1022.2 hPa Calm   1.6 km/h 63 % 0 mm 206.00 W/m2
10:43 11.4 °C 4.8 °C 1022.6 hPa Calm     64 % 0 mm 174.00 W/m2
10:48 11.4 °C 4.9 °C 1022.6 hPa Calm     64 % 0 mm 139.00 W/m2
10:53 11.6 °C 5.2 °C 1022.2 hPa Calm     65 % 0 mm 125.00 W/m2
10:58 11.6 °C 5.7 °C 1022.2 hPa Calm   3.2 km/h 67 % 0 mm 123.00 W/m2
11:03 11.6 °C 5.5 °C 1022.2 hPa Calm   1.6 km/h 66 % 0 mm 128.00 W/m2
11:08 11.7 °C 5.6 °C 1022.2 hPa Calm   1.6 km/h 66 % 0 mm 146.00 W/m2
11:13 11.7 °C 5.6 °C 1022.2 hPa Calm     66 % 0 mm 149.00 W/m2
11:18 11.7 °C 5.8 °C 1022.2 hPa Calm     67 % 0 mm 162.00 W/m2
11:23 11.8 °C 6.1 °C 1022.6 hPa Calm     68 % 0 mm 130.00 W/m2
11:28 11.8 °C 6.1 °C 1022.2 hPa Calm     68 % 0 mm 113.00 W/m2
11:33 11.8 °C 6.3 °C 1022.2 hPa Calm     69 % 0 mm 111.00 W/m2
11:38 11.8 °C 5.9 °C 1022.2 hPa Calm     67 % 0 mm 93.00 W/m2
11:43 11.8 °C 5.9 °C 1022.2 hPa Calm     67 % 0 mm 77.00 W/m2
11:48 11.8 °C 5.9 °C 1021.9 hPa Calm     67 % 0 mm 93.00 W/m2
11:53 11.9 °C 5.9 °C 1021.9 hPa Calm     67 % 0 mm 98.00 W/m2
11:58 11.8 °C 6.1 °C 1021.9 hPa Calm     68 % 0 mm 98.00 W/m2
12:03 11.9 °C 5.9 °C 1021.9 hPa Calm     67 % 0 mm 95.00 W/m2
12:13 11.8 °C 5.9 °C 1021.6 hPa Calm     67 % 0 mm 120.00 W/m2
12:18 11.8 °C 6.1 °C 1021.6 hPa Calm     68 % 0 mm 139.00 W/m2
12:23 11.8 °C 6.6 °C 1021.6 hPa Calm     70 % 0 mm 142.00 W/m2
12:28 11.8 °C 6.3 °C 1021.6 hPa Calm     69 % 0 mm 171.00 W/m2
12:33 11.8 °C 6.6 °C 1021.6 hPa Calm     70 % 0 mm 216.00 W/m2
12:38 11.8 °C 6.6 °C 1021.2 hPa Calm     70 % 0 mm 199.00 W/m2
12:43 11.9 °C 6.8 °C 1021.2 hPa Calm     71 % 0 mm 297.00 W/m2
12:48 11.9 °C 6.7 °C 1021.2 hPa Calm     70 % 0 mm 237.00 W/m2
12:53 12 °C 6.5 °C 1021.2 hPa Calm     69 % 0 mm 281.00 W/m2
12:58 12.1 °C 7 °C 1020.9 hPa Calm   8 km/h 71 % 0 mm 258.00 W/m2
13:03 12.3 °C 5.9 °C 1020.9 hPa Calm   6.4 km/h 65 % 0 mm 206.00 W/m2
13:08 12.4 °C 5.8 °C 1020.9 hPa Calm   6.4 km/h 64 % 0 mm 257.00 W/m2
13:13 12.6 °C 5.7 °C 1020.5 hPa SE 6.4 km/h 12.9 km/h 63 % 0 mm 250.00 W/m2
13:18 12.7 °C 6.1 °C 1020.2 hPa SE 11.3 km/h 22.5 km/h 64 % 0 mm 199.00 W/m2
13:23 12.9 °C 5.6 °C 1020.2 hPa SE 3.2 km/h 12.9 km/h 61 % 0 mm 237.00 W/m2
13:28 13.1 °C 5.5 °C 1020.2 hPa Calm   9.7 km/h 60 % 0 mm 216.00 W/m2
13:33 13.2 °C 5.8 °C 1020.2 hPa SE 6.4 km/h 11.3 km/h 61 % 0 mm 186.00 W/m2
13:38 13.3 °C 5.4 °C 1020.2 hPa SE 3.2 km/h 9.7 km/h 59 % 0 mm 197.00 W/m2
13:44 13.3 °C 5.5 °C 1019.9 hPa SE 1.6 km/h 9.7 km/h 59 % 0 mm 162.00 W/m2
13:49 13.4 °C 5.8 °C 1019.9 hPa Calm   6.4 km/h 60 % 0 mm 167.00 W/m2
13:54 13.4 °C 5.8 °C 1019.9 hPa Calm   8 km/h 60 % 0 mm 114.00 W/m2
13:59 13.5 °C 6.1 °C 1019.9 hPa ESE 1.6 km/h 9.7 km/h 61 % 0 mm 104.00 W/m2
14:04 13.5 °C 6.1 °C 1019.9 hPa Calm   8 km/h 61 % 0 mm 114.00 W/m2
14:09 13.5 °C 5.9 °C 1019.9 hPa SE 1.6 km/h 8 km/h 60 % 0 mm 118.00 W/m2
14:14 13.4 °C 5.6 °C 1019.5 hPa SE 1.6 km/h 8 km/h 59 % 0 mm 172.00 W/m2
14:19 13.5 °C 5.9 °C 1019.5 hPa SSE 1.6 km/h 9.7 km/h 60 % 0 mm 167.00 W/m2
14:24 13.5 °C 6.1 °C 1019.5 hPa SSE 3.2 km/h 14.5 km/h 61 % 0 mm 171.00 W/m2
14:29 13.5 °C 5.2 °C 1019.2 hPa South 8 km/h 14.5 km/h 57 % 0 mm 174.00 W/m2
14:34 13.6 °C 5.4 °C 1019.2 hPa Calm   11.3 km/h 58 % 0 mm 162.00 W/m2
14:39 13.6 °C 5.7 °C 1018.8 hPa Calm   8 km/h 59 % 0 mm 109.00 W/m2
14:44 13.6 °C 5.5 °C 1018.8 hPa SSE 3.2 km/h 8 km/h 58 % 0 mm 135.00 W/m2
14:49 13.7 °C 5.8 °C 1018.8 hPa SSE 1.6 km/h 9.7 km/h 59 % 0 mm 137.00 W/m2
14:54 13.7 °C 6.1 °C 1019.2 hPa South 6.4 km/h 8 km/h 60 % 0 mm 123.00 W/m2
14:59 13.7 °C 6.3 °C 1018.8 hPa South 3.2 km/h 9.7 km/h 61 % 0 mm 183.00 W/m2
15:04 13.7 °C 6.1 °C 1019.2 hPa South 4.8 km/h 4.8 km/h 60 % 0 mm 206.00 W/m2
15:09 13.7 °C 6.1 °C 1018.8 hPa South 6.4 km/h 6.4 km/h 60 % 0 mm 223.00 W/m2
15:14 13.8 °C 5.4 °C 1018.8 hPa South 6.4 km/h 11.3 km/h 57 % 0 mm 396.00 W/m2
15:19 13.8 °C 5.7 °C 1018.8 hPa SSE 3.2 km/h 11.3 km/h 58 % 0 mm 345.00 W/m2
15:24 13.9 °C 5 °C 1018.8 hPa South 1.6 km/h 16.1 km/h 55 % 0 mm 274.00 W/m2
15:34 14.1 °C 5.4 °C 1018.8 hPa SSE 6.4 km/h 8 km/h 56 % 0 mm 179.00 W/m2
15:39 14.2 °C 5.6 °C 1018.8 hPa South 6.4 km/h 19.3 km/h 56 % 0 mm 199.00 W/m2
15:44 14.3 °C 5.1 °C 1018.8 hPa South 1.6 km/h 16.1 km/h 54 % 0 mm 316.00 W/m2
15:49 14.3 °C 5.7 °C 1018.2 hPa SSE 3.2 km/h 16.1 km/h 56 % 0 mm 229.00 W/m2
15:54 14.3 °C 5.7 °C 1018.2 hPa SSE 3.2 km/h 16.1 km/h 56 % 0 mm 218.00 W/m2
15:59 14.3 °C 5.6 °C 1018.2 hPa South 14.5 km/h 16.1 km/h 56 % 0 mm 316.00 W/m2
16:04 14.3 °C 5.4 °C 1018.2 hPa SSE 12.9 km/h 12.9 km/h 55 % 0 mm 95.00 W/m2
16:09 14.2 °C 5.6 °C 1018.2 hPa Calm   16.1 km/h 56 % 0 mm 98.00 W/m2
16:14 14.2 °C 6.3 °C 1018.5 hPa South 1.6 km/h 6.4 km/h 59 % 0 mm 109.00 W/m2
16:19 14.1 °C 5.9 °C 1018.2 hPa Calm   19.3 km/h 58 % 0 mm 148.00 W/m2
16:24 14 °C 5.9 °C 1018.5 hPa Calm   24.1 km/h 58 % 0 mm 84.00 W/m2
16:29 13.9 °C 5.8 °C 1018.5 hPa SSE 19.3 km/h 19.3 km/h 58 % 0 mm 72.00 W/m2
16:34 13.8 °C 4.9 °C 1018.5 hPa SSE 1.6 km/h 25.7 km/h 55 % 0 mm 65.00 W/m2
16:39 13.8 °C 5.2 °C 1018.5 hPa South 12.9 km/h 17.7 km/h 56 % 0 mm 51.00 W/m2
16:44 13.8 °C 4.6 °C 1018.5 hPa SSE 9.7 km/h 19.3 km/h 54 % 0 mm 47.00 W/m2
16:49 13.8 °C 4.4 °C 1018.8 hPa SSE 16.1 km/h 22.5 km/h 53 % 0 mm 44.00 W/m2
16:50 13.8 °C 4.4 °C 1018.8 hPa SSE 9.7 km/h 22.5 km/h 53 % 0 mm 44.00 W/m2
16:55 13.8 °C 4.6 °C 1018.8 hPa SSE 14.5 km/h 17.7 km/h 54 % 0 mm 33.00 W/m2
17:00 13.8 °C 4.1 °C 1018.8 hPa SSE 16.1 km/h 24.1 km/h 52 % 0 mm 32.00 W/m2
17:05 13.8 °C 4.6 °C 1018.5 hPa South 3.2 km/h 27.4 km/h 54 % 0 mm 30.00 W/m2
17:10 13.7 °C 4.1 °C 1018.5 hPa Calm   22.5 km/h 52 % 0 mm 18.00 W/m2
17:15 13.7 °C 4.3 °C 1018.5 hPa Calm   30.6 km/h 53 % 0 mm 7.00 W/m2
17:20 13.7 °C 4.3 °C 1018.5 hPa South 12.9 km/h 19.3 km/h 53 % 0 mm 7.00 W/m2
17:25 13.6 °C 4.2 °C 1018.5 hPa SE 9.7 km/h 19.3 km/h 53 % 0 mm 5.00 W/m2
17:30 13.6 °C 4.2 °C 1018.5 hPa SSE 11.3 km/h 22.5 km/h 53 % 0 mm 5.00 W/m2
17:35 13.5 °C 3.8 °C 1018.5 hPa SE 12.9 km/h 20.9 km/h 52 % 0 mm 5.00 W/m2
17:40 13.4 °C 4.3 °C 1018.2 hPa South 8 km/h 22.5 km/h 54 % 0 mm 0.00 W/m2
17:45 13.3 °C 3.9 °C 1018.5 hPa ESE 19.3 km/h 20.9 km/h 53 % 0 mm 0.00 W/m2
17:50 13.3 °C 3.9 °C 1018.5 hPa SSE 11.3 km/h 27.4 km/h 53 % 0 mm 0.00 W/m2
17:55 13.2 °C 4.1 °C 1018.5 hPa SSE 8 km/h 22.5 km/h 54 % 0 mm 0.00 W/m2
18:00 13.2 °C 4.1 °C 1018.2 hPa SE 9.7 km/h 25.7 km/h 54 % 0 mm 0.00 W/m2
18:05 13.1 °C 3.2 °C 1018.5 hPa SSE 11.3 km/h 20.9 km/h 51 % 0 mm 0.00 W/m2
18:10 13.1 °C 4 °C 1018.2 hPa Calm   17.7 km/h 54 % 0 mm 0.00 W/m2
18:15 13.1 °C 3.7 °C 1018.2 hPa Calm   19.3 km/h 53 % 0 mm 0.00 W/m2
18:20 13 °C 4.4 °C 1018.2 hPa SSE 9.7 km/h 22.5 km/h 56 % 0 mm 0.00 W/m2
18:25 12.9 °C 4.1 °C 1018.5 hPa Calm   19.3 km/h 55 % 0 mm 0.00 W/m2
18:30 12.9 °C 4.8 °C 1018.2 hPa SSE 6.4 km/h 19.3 km/h 58 % 0 mm 0.00 W/m2
18:35 12.8 °C 4.6 °C 1018.2 hPa SE 12.9 km/h 20.9 km/h 57 % 0 mm 0.00 W/m2
18:40 12.8 °C 4.7 °C 1018.2 hPa SE 8 km/h 29 km/h 58 % 0 mm 0.00 W/m2
18:46 12.7 °C 4.6 °C 1018.2 hPa SE 11.3 km/h 19.3 km/h 58 % 0 mm 0.00 W/m2
18:51 12.6 °C 4.8 °C 1018.2 hPa SE 11.3 km/h 24.1 km/h 59 % 0 mm 0.00 W/m2
18:56 12.6 °C 4.8 °C 1018.2 hPa SE 11.3 km/h 19.3 km/h 59 % 0 mm 0.00 W/m2
19:01 12.6 °C 4.8 °C 1018.2 hPa SE 11.3 km/h 20.9 km/h 59 % 0 mm 0.00 W/m2
19:06 12.5 °C 4.4 °C 1018.2 hPa SSE 17.7 km/h 22.5 km/h 58 % 0 mm 0.00 W/m2
19:11 12.5 °C 3.9 °C 1018.2 hPa SE 17.7 km/h 20.9 km/h 56 % 0 mm 0.00 W/m2
19:16 12.6 °C 4.3 °C 1018.2 hPa SSE 17.7 km/h 27.4 km/h 57 % 0 mm 0.00 W/m2
19:21 12.6 °C 4.3 °C 1018.2 hPa SSE 12.9 km/h 27.4 km/h 57 % 0 mm 0.00 W/m2
19:26 12.7 °C 4.4 °C 1018.2 hPa SE 14.5 km/h 16.1 km/h 57 % 0 mm 0.00 W/m2
19:31 12.7 °C 4.7 °C 1018.2 hPa SSE 11.3 km/h 20.9 km/h 58 % 0 mm 0.00 W/m2
19:36 12.7 °C 4.7 °C 1017.8 hPa SSE 1.6 km/h 22.5 km/h 58 % 0 mm 0.00 W/m2
19:41 12.7 °C 4.7 °C 1018.2 hPa SE 11.3 km/h 20.9 km/h 58 % 0 mm 0.00 W/m2
19:46 12.8 °C 4.7 °C 1018.2 hPa SE 9.7 km/h 25.7 km/h 58 % 0 mm 0.00 W/m2
19:51 12.8 °C 4.5 °C 1017.8 hPa SSE 14.5 km/h 27.4 km/h 57 % 0 mm 0.00 W/m2
19:56 12.8 °C 4.6 °C 1017.8 hPa SE 12.9 km/h 29 km/h 57 % 0 mm 0.00 W/m2
20:01 12.9 °C 4.3 °C 1018.2 hPa SSE 14.5 km/h 20.9 km/h 56 % 0 mm 0.00 W/m2
20:06 12.9 °C 4.6 °C 1017.8 hPa SE 8 km/h 27.4 km/h 57 % 0 mm 0.00 W/m2
20:11 13 °C 4.4 °C 1017.8 hPa SSE 16.1 km/h 25.7 km/h 56 % 0 mm 0.00 W/m2
20:16 13 °C 4.4 °C 1017.8 hPa SSE 3.2 km/h 8 km/h 56 % 0 mm 0.00 W/m2
20:21 13 °C 4.4 °C 1017.8 hPa SSE 12.9 km/h 12.9 km/h 56 % 0 mm 0.00 W/m2
20:26 12.9 °C 4.4 °C 1017.8 hPa South 17.7 km/h 17.7 km/h 56 % 0 mm 0.00 W/m2
20:31 12.9 °C 4.1 °C 1017.8 hPa SSE 11.3 km/h 16.1 km/h 55 % 0 mm 0.00 W/m2
20:36 12.9 °C 4.4 °C 1017.8 hPa SE 22.5 km/h 22.5 km/h 56 % 0 mm 0.00 W/m2
20:41 12.9 °C 3.9 °C 1017.8 hPa SSE 3.2 km/h 3.2 km/h 54 % 0 mm 0.00 W/m2
20:46 13 °C 3.7 °C 1017.8 hPa SSE 16.1 km/h 17.7 km/h 53 % 0 mm 0.00 W/m2
20:51 13 °C 3.7 °C 1017.8 hPa SE 11.3 km/h 19.3 km/h 53 % 0 mm 0.00 W/m2
20:56 13.1 °C 3.2 °C 1017.8 hPa SE 14.5 km/h 14.5 km/h 51 % 0 mm 0.00 W/m2
21:01 13.1 °C 3.5 °C 1017.8 hPa SSE 6.4 km/h 11.3 km/h 52 % 0 mm 0.00 W/m2
21:06 13.2 °C 3.6 °C 1017.8 hPa SSE 8 km/h 9.7 km/h 52 % 0 mm 0.00 W/m2
21:11 13.2 °C 3.6 °C 1017.8 hPa SSE 11.3 km/h 11.3 km/h 52 % 0 mm 0.00 W/m2
21:16 13.2 °C 3.6 °C 1017.5 hPa Calm   6.4 km/h 52 % 0 mm 0.00 W/m2
21:21 13.2 °C 3.3 °C 1017.2 hPa SSE 12.9 km/h 19.3 km/h 51 % 0 mm 0.00 W/m2
21:26 13.2 °C 3.3 °C 1017.5 hPa SSE 14.5 km/h 16.1 km/h 51 % 0 mm 0.00 W/m2
21:31 13.2 °C 3 °C 1017.5 hPa SSE 16.1 km/h 19.3 km/h 50 % 0 mm 0.00 W/m2
21:36 13.2 °C 3.1 °C 1016.8 hPa SSE 12.9 km/h 17.7 km/h 50 % 0 mm 0.00 W/m2
21:41 13.2 °C 2.4 °C 1016.8 hPa SE 14.5 km/h 17.7 km/h 48 % 0 mm 0.00 W/m2
21:46 13.3 °C 2.5 °C 1017.2 hPa SSE 12.9 km/h 16.1 km/h 48 % 0 mm 0.00 W/m2
21:51 13.3 °C 2.6 °C 1017.5 hPa SSE 11.3 km/h 11.3 km/h 48 % 0 mm 0.00 W/m2
21:56 13.3 °C 2.3 °C 1017.5 hPa SSE 16.1 km/h 17.7 km/h 47 % 0 mm 0.00 W/m2
22:01 13.4 °C 2.9 °C 1017.2 hPa SE 16.1 km/h 16.1 km/h 49 % 0 mm 0.00 W/m2
22:06 13.4 °C 2.9 °C 1017.2 hPa South 16.1 km/h 25.7 km/h 49 % 0 mm 0.00 W/m2
22:11 13.4 °C 2.3 °C 1017.5 hPa Calm   1.6 km/h 47 % 0 mm 0.00 W/m2
22:16 13.4 °C 2.3 °C 1017.5 hPa Calm     47 % 0 mm 0.00 W/m2
22:22 13.4 °C 2.3 °C 1017.5 hPa Calm   1.6 km/h 47 % 0 mm 0.00 W/m2
22:27 13.4 °C 2.3 °C 1017.2 hPa South 14.5 km/h 20.9 km/h 47 % 0 mm 0.00 W/m2
22:32 13.4 °C 2.9 °C 1016.8 hPa SSE 11.3 km/h 19.3 km/h 49 % 0 mm 0.00 W/m2
22:37 13.4 °C 2.3 °C 1016.8 hPa South 14.5 km/h 17.7 km/h 47 % 0 mm 0.00 W/m2
22:42 13.3 °C 2.6 °C 1016.8 hPa SSE 16.1 km/h 20.9 km/h 48 % 0 mm 0.00 W/m2
22:47 13.3 °C 2.3 °C 1016.8 hPa SSE 16.1 km/h 27.4 km/h 47 % 0 mm 0.00 W/m2
22:52 13.3 °C 2.3 °C 1016.8 hPa SSE 12.9 km/h 14.5 km/h 47 % 0 mm 0.00 W/m2
22:57 13.3 °C 2.3 °C 1016.5 hPa SE 11.3 km/h 17.7 km/h 47 % 0 mm 0.00 W/m2
23:02 13.3 °C 2.5 °C 1016.5 hPa South 9.7 km/h 14.5 km/h 48 % 0 mm 0.00 W/m2
23:07 13.3 °C 2.2 °C 1016.5 hPa Calm   16.1 km/h 47 % 0 mm 0.00 W/m2
23:12 13.3 °C 2.2 °C 1016.5 hPa South 12.9 km/h 16.1 km/h 47 % 0 mm 0.00 W/m2
23:17 13.3 °C 3.6 °C 1016.8 hPa SSW 4.8 km/h 14.5 km/h 52 % 0 mm 0.00 W/m2
23:22 13.2 °C 3.6 °C 1016.8 hPa South 11.3 km/h 12.9 km/h 52 % 0 mm 0.00 W/m2
23:27 13.1 °C 2.7 °C 1016.1 hPa SSE 6.4 km/h 11.3 km/h 49 % 0 mm 0.00 W/m2
23:32 13.1 °C 2.9 °C 1016.1 hPa SSE 11.3 km/h 16.1 km/h 50 % 0 mm 0.00 W/m2
23:37 13 °C 2.6 °C 1016.1 hPa SSE 1.6 km/h 12.9 km/h 49 % 0 mm 0.00 W/m2
23:42 12.9 °C 2.5 °C 1016.1 hPa SSE 9.7 km/h 16.1 km/h 49 % 0 mm 0.00 W/m2
23:47 12.8 °C 2.9 °C 1015.8 hPa Calm   16.1 km/h 51 % 0 mm 0.00 W/m2
23:52 12.8 °C 3.2 °C 1016.1 hPa Calm     52 % 0 mm 0.00 W/m2
23:57 12.7 °C 4.4 °C 1015.8 hPa SSE 16.1 km/h 16.1 km/h 57 % 0 mm 0.00 W/m2
Juneau County Weather
Compliments of Weather Underground - 4.5 mb
 WU-history PHP script courtesy of   Juneau County Weather.
powered by Cumulus v1.9.3 (1059)
Ambient Weather VWS v14.00
Top Contact Website Map Copyright © 2007 - 2018 Foresthillweather.com Never base important decisions on this or any weather information obtained from the Internet